Terminal Aerodrome Forecast
Issued by NWS Shreveport, LA

Home | Current Version | Previous Version | Text Only | Print | Product List | Glossary On
Versions: 1 2 3 4 5 6 7 8 9 10 11 12 13 14 15 16
000
FTUS44 KSHV 311120
TAFTXK
TAF
KTXK 311120Z 3112/0112 04004KT 4SM BR SKC
      TEMPO 3112/3114 2SM BR
     FM311400 03005KT P6SM SKC
     FM311700 03007KT P6SM SCT040
     FM010100 05003KT P6SM FEW250
     FM010900 04003KT 5SM BR BKN250=

USA.gov is the U.S. government's official web portal to all federal, state and local government web resources and services.